sensor_id;sensor_type;location;lat;lon;timestamp;P1;durP1;ratioP1;P2;durP2;ratioP2
22017;SDS011;11173;51.050;7.108;2022-08-19T00:01:32;2.60;;;2.40;;
22017;SDS011;11173;51.050;7.108;2022-08-19T00:06:35;2.67;;;2.10;;
22017;SDS011;11173;51.050;7.108;2022-08-19T00:11:39;2.47;;;2.38;;
22017;SDS011;11173;51.050;7.108;2022-08-19T00:16:41;2.65;;;2.45;;
22017;SDS011;11173;51.050;7.108;2022-08-19T00:21:42;2.42;;;2.33;;
22017;SDS011;11173;51.050;7.108;2022-08-19T00:26:43;3.78;;;3.50;;
22017;SDS011;11173;51.050;7.108;2022-08-19T00:31:45;3.70;;;3.40;;
22017;SDS011;11173;51.050;7.108;2022-08-19T00:36:46;3.85;;;3.60;;
22017;SDS011;11173;51.050;7.108;2022-08-19T00:41:47;4.03;;;3.72;;
22017;SDS011;11173;51.050;7.108;2022-08-19T00:46:49;3.92;;;3.63;;
22017;SDS011;11173;51.050;7.108;2022-08-19T00:51:52;4.20;;;3.80;;
22017;SDS011;11173;51.050;7.108;2022-08-19T00:57:02;3.10;;;2.90;;
22017;SDS011;11173;51.050;7.108;2022-08-19T01:02:06;4.25;;;3.95;;
22017;SDS011;11173;51.050;7.108;2022-08-19T01:07:07;3.95;;;3.65;;
22017;SDS011;11173;51.050;7.108;2022-08-19T01:12:08;4.25;;;3.95;;
22017;SDS011;11173;51.050;7.108;2022-08-19T01:17:11;4.60;;;4.20;;
22017;SDS011;11173;51.050;7.108;2022-08-19T01:27:42;5.10;;;4.70;;
22017;SDS011;11173;51.050;7.108;2022-08-19T01:32:44;4.75;;;4.35;;
22017;SDS011;11173;51.050;7.108;2022-08-19T01:37:49;5.55;;;5.07;;
22017;SDS011;11173;51.050;7.108;2022-08-19T01:42:52;5.40;;;5.00;;
22017;SDS011;11173;51.050;7.108;2022-08-19T01:47:54;5.13;;;4.72;;
22017;SDS011;11173;51.050;7.108;2022-08-19T01:52:55;3.22;;;3.03;;
22017;SDS011;11173;51.050;7.108;2022-08-19T01:57:57;1.23;;;1.23;;
22017;SDS011;11173;51.050;7.108;2022-08-19T02:02:59;1.00;;;1.00;;
22017;SDS011;11173;51.050;7.108;2022-08-19T02:08:01;0.90;;;0.90;;
22017;SDS011;11173;51.050;7.108;2022-08-19T02:13:01;0.60;;;0.60;;
22017;SDS011;11173;51.050;7.108;2022-08-19T02:18:02;0.57;;;0.57;;
22017;SDS011;11173;51.050;7.108;2022-08-19T02:23:02;0.60;;;0.60;;
22017;SDS011;11173;51.050;7.108;2022-08-19T02:28:03;0.70;;;0.70;;
22017;SDS011;11173;51.050;7.108;2022-08-19T02:33:04;0.85;;;0.85;;
22017;SDS011;11173;51.050;7.108;2022-08-19T02:38:05;1.38;;;1.27;;
22017;SDS011;11173;51.050;7.108;2022-08-19T02:43:24;1.10;;;1.10;;
22017;SDS011;11173;51.050;7.108;2022-08-19T02:48:27;1.10;;;1.08;;
22017;SDS011;11173;51.050;7.108;2022-08-19T02:53:27;1.20;;;1.10;;
22017;SDS011;11173;51.050;7.108;2022-08-19T02:58:28;2.85;;;1.30;;
22017;SDS011;11173;51.050;7.108;2022-08-19T03:03:29;1.60;;;1.50;;
22017;SDS011;11173;51.050;7.108;2022-08-19T03:08:29;2.17;;;2.08;;
22017;SDS011;11173;51.050;7.108;2022-08-19T03:13:30;1.98;;;1.88;;
22017;SDS011;11173;51.050;7.108;2022-08-19T03:18:30;1.98;;;1.88;;
22017;SDS011;11173;51.050;7.108;2022-08-19T03:23:31;1.00;;;1.00;;
22017;SDS011;11173;51.050;7.108;2022-08-19T03:28:32;0.85;;;0.85;;
22017;SDS011;11173;51.050;7.108;2022-08-19T03:33:34;1.10;;;1.00;;
22017;SDS011;11173;51.050;7.108;2022-08-19T03:38:39;0.60;;;0.60;;
22017;SDS011;11173;51.050;7.108;2022-08-19T03:43:44;0.60;;;0.60;;
22017;SDS011;11173;51.050;7.108;2022-08-19T03:48:50;1.10;;;0.82;;
22017;SDS011;11173;51.050;7.108;2022-08-19T03:53:54;2.90;;;2.70;;
22017;SDS011;11173;51.050;7.108;2022-08-19T03:58:55;3.60;;;3.40;;
22017;SDS011;11173;51.050;7.108;2022-08-19T04:03:58;2.90;;;2.70;;
22017;SDS011;11173;51.050;7.108;2022-08-19T04:08:59;3.00;;;2.80;;
22017;SDS011;11173;51.050;7.108;2022-08-19T04:14:02;1.40;;;1.30;;
22017;SDS011;11173;51.050;7.108;2022-08-19T04:19:04;1.00;;;1.00;;
22017;SDS011;11173;51.050;7.108;2022-08-19T04:24:05;1.20;;;1.00;;
22017;SDS011;11173;51.050;7.108;2022-08-19T04:29:10;1.00;;;1.00;;
22017;SDS011;11173;51.050;7.108;2022-08-19T04:34:13;0.80;;;0.80;;
22017;SDS011;11173;51.050;7.108;2022-08-19T04:39:16;0.75;;;0.75;;
22017;SDS011;11173;51.050;7.108;2022-08-19T04:44:18;0.93;;;0.93;;
22017;SDS011;11173;51.050;7.108;2022-08-19T04:49:19;1.60;;;1.50;;
22017;SDS011;11173;51.050;7.108;2022-08-19T04:54:23;2.25;;;2.15;;
22017;SDS011;11173;51.050;7.108;2022-08-19T04:59:25;1.33;;;1.27;;
22017;SDS011;11173;51.050;7.108;2022-08-19T05:04:25;1.20;;;1.20;;
22017;SDS011;11173;51.050;7.108;2022-08-19T05:09:26;2.05;;;1.90;;
22017;SDS011;11173;51.050;7.108;2022-08-19T05:14:26;4.00;;;3.70;;
22017;SDS011;11173;51.050;7.108;2022-08-19T05:19:27;3.72;;;3.53;;
22017;SDS011;11173;51.050;7.108;2022-08-19T05:24:45;6.10;;;5.68;;
22017;SDS011;11173;51.050;7.108;2022-08-19T05:29:46;4.07;;;3.78;;
22017;SDS011;11173;51.050;7.108;2022-08-19T05:34:46;4.90;;;4.60;;
22017;SDS011;11173;51.050;7.108;2022-08-19T05:39:47;4.35;;;4.05;;
22017;SDS011;11173;51.050;7.108;2022-08-19T05:44:49;6.32;;;5.82;;
22017;SDS011;11173;51.050;7.108;2022-08-19T05:49:50;4.95;;;4.55;;
22017;SDS011;11173;51.050;7.108;2022-08-19T05:54:51;5.57;;;5.17;;
22017;SDS011;11173;51.050;7.108;2022-08-19T05:59:51;5.47;;;5.07;;
22017;SDS011;11173;51.050;7.108;2022-08-19T06:04:53;6.13;;;5.60;;
22017;SDS011;11173;51.050;7.108;2022-08-19T06:09:54;6.88;;;6.28;;
22017;SDS011;11173;51.050;7.108;2022-08-19T06:14:56;7.25;;;6.65;;
22017;SDS011;11173;51.050;7.108;2022-08-19T06:19:56;6.70;;;6.00;;
22017;SDS011;11173;51.050;7.108;2022-08-19T06:24:58;8.43;;;7.63;;
22017;SDS011;11173;51.050;7.108;2022-08-19T06:29:58;6.93;;;6.32;;
22017;SDS011;11173;51.050;7.108;2022-08-19T06:34:59;8.68;;;7.88;;
22017;SDS011;11173;51.050;7.108;2022-08-19T06:39:59;9.88;;;8.82;;
22017;SDS011;11173;51.050;7.108;2022-08-19T06:45:00;7.13;;;6.60;;
22017;SDS011;11173;51.050;7.108;2022-08-19T06:50:03;9.20;;;8.30;;
22017;SDS011;11173;51.050;7.108;2022-08-19T06:55:04;9.02;;;8.13;;
22017;SDS011;11173;51.050;7.108;2022-08-19T07:00:05;6.15;;;5.65;;
22017;SDS011;11173;51.050;7.108;2022-08-19T07:05:10;7.13;;;6.57;;
22017;SDS011;11173;51.050;7.108;2022-08-19T07:10:11;14.53;;;13.07;;
22017;SDS011;11173;51.050;7.108;2022-08-19T07:15:12;8.32;;;7.63;;
22017;SDS011;11173;51.050;7.108;2022-08-19T07:20:13;6.97;;;6.38;;
22017;SDS011;11173;51.050;7.108;2022-08-19T07:25:14;7.82;;;7.13;;
22017;SDS011;11173;51.050;7.108;2022-08-19T07:30:15;6.70;;;6.10;;
22017;SDS011;11173;51.050;7.108;2022-08-19T07:35:16;4.82;;;4.43;;
22017;SDS011;11173;51.050;7.108;2022-08-19T07:40:19;6.93;;;6.30;;
22017;SDS011;11173;51.050;7.108;2022-08-19T07:45:19;7.43;;;6.82;;
22017;SDS011;11173;51.050;7.108;2022-08-19T07:50:20;10.18;;;8.60;;
22017;SDS011;11173;51.050;7.108;2022-08-19T07:55:22;5.65;;;5.15;;
22017;SDS011;11173;51.050;7.108;2022-08-19T08:00:25;4.57;;;4.28;;
22017;SDS011;11173;51.050;7.108;2022-08-19T08:05:26;6.15;;;5.55;;
22017;SDS011;11173;51.050;7.108;2022-08-19T08:10:45;7.18;;;6.00;;
22017;SDS011;11173;51.050;7.108;2022-08-19T08:15:45;8.70;;;7.90;;
22017;SDS011;11173;51.050;7.108;2022-08-19T08:20:46;9.00;;;8.10;;
22017;SDS011;11173;51.050;7.108;2022-08-19T08:25:47;7.20;;;6.53;;
22017;SDS011;11173;51.050;7.108;2022-08-19T08:30:48;8.95;;;6.57;;
22017;SDS011;11173;51.050;7.108;2022-08-19T08:35:50;6.60;;;6.00;;
22017;SDS011;11173;51.050;7.108;2022-08-19T08:40:52;5.30;;;4.90;;
22017;SDS011;11173;51.050;7.108;2022-08-19T08:46:01;5.75;;;5.18;;
22017;SDS011;11173;51.050;7.108;2022-08-19T08:51:07;7.38;;;6.68;;
22017;SDS011;11173;51.050;7.108;2022-08-19T08:56:13;7.97;;;7.28;;
22017;SDS011;11173;51.050;7.108;2022-08-19T09:01:13;9.93;;;9.02;;
22017;SDS011;11173;51.050;7.108;2022-08-19T09:11:41;6.45;;;5.88;;
22017;SDS011;11173;51.050;7.108;2022-08-19T09:16:46;4.60;;;4.25;;
22017;SDS011;11173;51.050;7.108;2022-08-19T09:21:48;6.18;;;5.63;;
22017;SDS011;11173;51.050;7.108;2022-08-19T09:26:50;10.05;;;9.02;;
22017;SDS011;11173;51.050;7.108;2022-08-19T09:31:50;5.83;;;5.33;;
22017;SDS011;11173;51.050;7.108;2022-08-19T09:36:51;5.88;;;5.38;;
22017;SDS011;11173;51.050;7.108;2022-08-19T09:41:53;7.60;;;6.95;;
22017;SDS011;11173;51.050;7.108;2022-08-19T09:46:53;7.93;;;6.93;;
22017;SDS011;11173;51.050;7.108;2022-08-19T09:51:54;6.70;;;6.10;;
22017;SDS011;11173;51.050;7.108;2022-08-19T09:56:57;8.90;;;8.00;;
22017;SDS011;11173;51.050;7.108;2022-08-19T10:02:00;12.50;;;10.93;;
22017;SDS011;11173;51.050;7.108;2022-08-19T10:07:00;6.28;;;5.78;;
22017;SDS011;11173;51.050;7.108;2022-08-19T10:12:01;9.73;;;8.73;;
22017;SDS011;11173;51.050;7.108;2022-08-19T10:17:04;9.20;;;8.30;;
22017;SDS011;11173;51.050;7.108;2022-08-19T10:22:05;9.02;;;8.23;;
22017;SDS011;11173;51.050;7.108;2022-08-19T10:27:07;4.07;;;3.70;;
22017;SDS011;11173;51.050;7.108;2022-08-19T10:32:07;4.07;;;3.77;;
22017;SDS011;11173;51.050;7.108;2022-08-19T10:37:08;4.97;;;4.57;;
22017;SDS011;11173;51.050;7.108;2022-08-19T10:42:09;5.10;;;4.60;;
22017;SDS011;11173;51.050;7.108;2022-08-19T10:47:11;5.00;;;4.60;;
22017;SDS011;11173;51.050;7.108;2022-08-19T10:52:12;3.38;;;3.17;;
22017;SDS011;11173;51.050;7.108;2022-08-19T10:57:31;3.90;;;3.60;;
22017;SDS011;11173;51.050;7.108;2022-08-19T11:02:31;5.13;;;4.72;;
22017;SDS011;11173;51.050;7.108;2022-08-19T11:07:32;3.70;;;3.40;;
22017;SDS011;11173;51.050;7.108;2022-08-19T11:12:33;5.87;;;4.67;;
22017;SDS011;11173;51.050;7.108;2022-08-19T11:17:33;6.38;;;5.88;;
22017;SDS011;11173;51.050;7.108;2022-08-19T11:22:34;3.45;;;3.17;;
22017;SDS011;11173;51.050;7.108;2022-08-19T11:27:37;3.67;;;3.45;;
22017;SDS011;11173;51.050;7.108;2022-08-19T11:32:40;2.92;;;2.72;;
22017;SDS011;11173;51.050;7.108;2022-08-19T11:37:41;4.05;;;3.75;;
22017;SDS011;11173;51.050;7.108;2022-08-19T11:42:41;3.78;;;3.47;;
22017;SDS011;11173;51.050;7.108;2022-08-19T11:47:57;4.97;;;4.57;;
22017;SDS011;11173;51.050;7.108;2022-08-19T11:52:57;5.53;;;5.07;;
22017;SDS011;11173;51.050;7.108;2022-08-19T11:57:57;4.32;;;3.65;;
22017;SDS011;11173;51.050;7.108;2022-08-19T12:02:58;3.90;;;3.58;;
22017;SDS011;11173;51.050;7.108;2022-08-19T12:07:58;4.10;;;3.80;;
22017;SDS011;11173;51.050;7.108;2022-08-19T12:12:59;3.45;;;3.25;;
22017;SDS011;11173;51.050;7.108;2022-08-19T12:17:59;4.78;;;4.28;;
22017;SDS011;11173;51.050;7.108;2022-08-19T12:23:00;2.90;;;2.70;;
22017;SDS011;11173;51.050;7.108;2022-08-19T12:28:00;4.80;;;4.50;;
22017;SDS011;11173;51.050;7.108;2022-08-19T12:33:01;4.55;;;4.13;;
22017;SDS011;11173;51.050;7.108;2022-08-19T12:38:01;2.13;;;1.97;;
22017;SDS011;11173;51.050;7.108;2022-08-19T12:43:02;3.20;;;3.00;;
22017;SDS011;11173;51.050;7.108;2022-08-19T12:48:03;2.60;;;2.40;;
22017;SDS011;11173;51.050;7.108;2022-08-19T12:53:04;2.28;;;2.17;;
22017;SDS011;11173;51.050;7.108;2022-08-19T12:58:05;2.00;;;1.90;;
22017;SDS011;11173;51.050;7.108;2022-08-19T13:03:05;3.22;;;2.95;;
22017;SDS011;11173;51.050;7.108;2022-08-19T13:08:06;2.45;;;2.28;;
22017;SDS011;11173;51.050;7.108;2022-08-19T13:13:08;2.13;;;2.03;;
22017;SDS011;11173;51.050;7.108;2022-08-19T13:18:10;3.88;;;3.30;;
22017;SDS011;11173;51.050;7.108;2022-08-19T13:23:12;2.55;;;2.35;;
22017;SDS011;11173;51.050;7.108;2022-08-19T13:28:13;2.80;;;2.60;;
22017;SDS011;11173;51.050;7.108;2022-08-19T13:33:13;2.30;;;2.20;;
22017;SDS011;11173;51.050;7.108;2022-08-19T13:38:15;2.33;;;2.20;;
22017;SDS011;11173;51.050;7.108;2022-08-19T13:43:21;2.88;;;2.67;;
22017;SDS011;11173;51.050;7.108;2022-08-19T13:48:25;4.78;;;3.10;;
22017;SDS011;11173;51.050;7.108;2022-08-19T13:53:27;3.03;;;2.83;;
22017;SDS011;11173;51.050;7.108;2022-08-19T13:58:28;3.10;;;2.90;;
22017;SDS011;11173;51.050;7.108;2022-08-19T14:03:28;3.45;;;3.08;;
22017;SDS011;11173;51.050;7.108;2022-08-19T14:08:29;2.65;;;2.50;;
22017;SDS011;11173;51.050;7.108;2022-08-19T14:13:32;2.42;;;2.30;;
22017;SDS011;11173;51.050;7.108;2022-08-19T14:18:34;1.95;;;1.85;;
22017;SDS011;11173;51.050;7.108;2022-08-19T14:23:34;1.65;;;1.55;;
22017;SDS011;11173;51.050;7.108;2022-08-19T14:28:36;1.52;;;1.42;;
22017;SDS011;11173;51.050;7.108;2022-08-19T14:33:36;1.98;;;1.88;;
22017;SDS011;11173;51.050;7.108;2022-08-19T14:38:36;2.33;;;2.13;;
22017;SDS011;11173;51.050;7.108;2022-08-19T14:43:37;1.70;;;1.60;;
22017;SDS011;11173;51.050;7.108;2022-08-19T14:48:38;1.60;;;1.50;;
22017;SDS011;11173;51.050;7.108;2022-08-19T14:53:38;1.98;;;1.88;;
22017;SDS011;11173;51.050;7.108;2022-08-19T14:58:39;2.45;;;2.25;;
22017;SDS011;11173;51.050;7.108;2022-08-19T15:03:41;1.60;;;1.50;;
22017;SDS011;11173;51.050;7.108;2022-08-19T15:08:42;1.30;;;1.30;;
22017;SDS011;11173;51.050;7.108;2022-08-19T15:13:44;1.98;;;1.40;;
22017;SDS011;11173;51.050;7.108;2022-08-19T15:18:48;1.90;;;1.50;;
22017;SDS011;11173;51.050;7.108;2022-08-19T15:23:50;1.15;;;1.10;;
22017;SDS011;11173;51.050;7.108;2022-08-19T15:28:51;3.05;;;1.30;;
22017;SDS011;11173;51.050;7.108;2022-08-19T15:33:52;1.65;;;1.55;;
22017;SDS011;11173;51.050;7.108;2022-08-19T15:38:56;1.73;;;1.60;;
22017;SDS011;11173;51.050;7.108;2022-08-19T15:43:58;1.57;;;1.20;;
22017;SDS011;11173;51.050;7.108;2022-08-19T15:49:05;2.58;;;1.50;;
22017;SDS011;11173;51.050;7.108;2022-08-19T15:54:08;1.55;;;1.23;;
22017;SDS011;11173;51.050;7.108;2022-08-19T15:59:10;1.17;;;0.98;;
22017;SDS011;11173;51.050;7.108;2022-08-19T16:04:28;1.58;;;1.10;;
22017;SDS011;11173;51.050;7.108;2022-08-19T16:09:47;1.10;;;1.10;;
22017;SDS011;11173;51.050;7.108;2022-08-19T16:14:47;1.30;;;1.20;;
22017;SDS011;11173;51.050;7.108;2022-08-19T16:19:48;1.90;;;0.77;;
22017;SDS011;11173;51.050;7.108;2022-08-19T16:24:49;0.77;;;0.52;;
22017;SDS011;11173;51.050;7.108;2022-08-19T16:29:49;0.80;;;0.80;;
22017;SDS011;11173;51.050;7.108;2022-08-19T16:34:49;0.52;;;0.52;;
22017;SDS011;11173;51.050;7.108;2022-08-19T16:39:50;2.13;;;0.80;;
22017;SDS011;11173;51.050;7.108;2022-08-19T16:44:50;1.35;;;0.73;;
22017;SDS011;11173;51.050;7.108;2022-08-19T16:49:53;1.08;;;0.80;;
22017;SDS011;11173;51.050;7.108;2022-08-19T16:54:53;0.80;;;0.73;;
22017;SDS011;11173;51.050;7.108;2022-08-19T16:59:54;0.85;;;0.85;;
22017;SDS011;11173;51.050;7.108;2022-08-19T17:04:54;1.90;;;1.20;;
22017;SDS011;11173;51.050;7.108;2022-08-19T17:09:55;1.37;;;1.00;;
22017;SDS011;11173;51.050;7.108;2022-08-19T17:14:56;1.10;;;1.05;;
22017;SDS011;11173;51.050;7.108;2022-08-19T17:19:57;0.80;;;0.80;;
22017;SDS011;11173;51.050;7.108;2022-08-19T17:24:59;1.13;;;0.90;;
22017;SDS011;11173;51.050;7.108;2022-08-19T17:30:00;1.33;;;1.00;;
22017;SDS011;11173;51.050;7.108;2022-08-19T17:35:01;1.20;;;1.10;;
22017;SDS011;11173;51.050;7.108;2022-08-19T17:40:03;1.23;;;1.13;;
22017;SDS011;11173;51.050;7.108;2022-08-19T17:45:06;2.15;;;1.42;;
22017;SDS011;11173;51.050;7.108;2022-08-19T17:50:09;1.20;;;1.10;;
22017;SDS011;11173;51.050;7.108;2022-08-19T17:55:11;1.23;;;1.00;;
22017;SDS011;11173;51.050;7.108;2022-08-19T18:00:14;1.10;;;1.00;;
22017;SDS011;11173;51.050;7.108;2022-08-19T18:05:16;1.00;;;1.00;;
22017;SDS011;11173;51.050;7.108;2022-08-19T18:10:19;0.95;;;0.95;;
22017;SDS011;11173;51.050;7.108;2022-08-19T18:15:21;1.00;;;1.00;;
22017;SDS011;11173;51.050;7.108;2022-08-19T18:20:22;1.02;;;1.02;;
22017;SDS011;11173;51.050;7.108;2022-08-19T18:25:23;1.40;;;1.30;;
22017;SDS011;11173;51.050;7.108;2022-08-19T18:30:26;1.08;;;0.98;;
22017;SDS011;11173;51.050;7.108;2022-08-19T18:35:32;1.23;;;1.05;;
22017;SDS011;11173;51.050;7.108;2022-08-19T18:40:32;3.13;;;2.83;;
22017;SDS011;11173;51.050;7.108;2022-08-19T18:46:05;11.75;;;8.02;;
22017;SDS011;11173;51.050;7.108;2022-08-19T18:51:24;32.88;;;18.70;;
22017;SDS011;11173;51.050;7.108;2022-08-19T18:56:29;11.85;;;8.38;;
22017;SDS011;11173;51.050;7.108;2022-08-19T19:01:35;6.00;;;5.32;;
22017;SDS011;11173;51.050;7.108;2022-08-19T19:06:38;6.57;;;5.95;;
22017;SDS011;11173;51.050;7.108;2022-08-19T19:11:43;8.48;;;7.15;;
22017;SDS011;11173;51.050;7.108;2022-08-19T19:16:45;8.75;;;7.18;;
22017;SDS011;11173;51.050;7.108;2022-08-19T19:21:46;8.27;;;6.90;;
22017;SDS011;11173;51.050;7.108;2022-08-19T19:26:49;7.60;;;6.38;;
22017;SDS011;11173;51.050;7.108;2022-08-19T19:31:50;6.32;;;5.55;;
22017;SDS011;11173;51.050;7.108;2022-08-19T19:36:51;6.68;;;5.03;;
22017;SDS011;11173;51.050;7.108;2022-08-19T19:41:51;5.25;;;4.65;;
22017;SDS011;11173;51.050;7.108;2022-08-19T19:46:52;3.13;;;2.87;;
22017;SDS011;11173;51.050;7.108;2022-08-19T19:51:54;1.80;;;1.70;;
22017;SDS011;11173;51.050;7.108;2022-08-19T19:56:55;1.20;;;1.10;;
22017;SDS011;11173;51.050;7.108;2022-08-19T20:01:55;0.68;;;0.68;;
22017;SDS011;11173;51.050;7.108;2022-08-19T20:06:56;0.73;;;0.73;;
22017;SDS011;11173;51.050;7.108;2022-08-19T20:11:56;0.73;;;0.73;;
22017;SDS011;11173;51.050;7.108;2022-08-19T20:16:57;0.30;;;0.30;;
22017;SDS011;11173;51.050;7.108;2022-08-19T20:21:59;0.20;;;0.20;;
22017;SDS011;11173;51.050;7.108;2022-08-19T20:27:00;0.22;;;0.22;;
22017;SDS011;11173;51.050;7.108;2022-08-19T20:32:02;0.90;;;0.90;;
22017;SDS011;11173;51.050;7.108;2022-08-19T20:37:02;0.70;;;0.70;;
22017;SDS011;11173;51.050;7.108;2022-08-19T20:42:04;0.70;;;0.70;;
22017;SDS011;11173;51.050;7.108;2022-08-19T20:47:04;0.77;;;0.77;;
22017;SDS011;11173;51.050;7.108;2022-08-19T20:52:05;1.88;;;1.17;;
22017;SDS011;11173;51.050;7.108;2022-08-19T20:57:05;1.30;;;1.20;;
22017;SDS011;11173;51.050;7.108;2022-08-19T21:02:06;0.93;;;0.93;;
22017;SDS011;11173;51.050;7.108;2022-08-19T21:07:07;1.17;;;1.08;;
22017;SDS011;11173;51.050;7.108;2022-08-19T21:12:12;0.80;;;0.80;;
22017;SDS011;11173;51.050;7.108;2022-08-19T21:17:13;1.00;;;0.90;;
22017;SDS011;11173;51.050;7.108;2022-08-19T21:22:13;0.83;;;0.83;;
22017;SDS011;11173;51.050;7.108;2022-08-19T21:27:14;0.98;;;0.90;;
22017;SDS011;11173;51.050;7.108;2022-08-19T21:32:14;1.38;;;0.93;;
22017;SDS011;11173;51.050;7.108;2022-08-19T21:37:15;0.80;;;0.80;;
22017;SDS011;11173;51.050;7.108;2022-08-19T21:42:19;0.70;;;0.70;;
22017;SDS011;11173;51.050;7.108;2022-08-19T21:47:19;0.93;;;0.60;;
22017;SDS011;11173;51.050;7.108;2022-08-19T21:52:21;0.70;;;0.70;;
22017;SDS011;11173;51.050;7.108;2022-08-19T21:57:22;0.63;;;0.50;;
22017;SDS011;11173;51.050;7.108;2022-08-19T22:02:24;0.50;;;0.50;;
22017;SDS011;11173;51.050;7.108;2022-08-19T22:07:24;0.20;;;0.20;;
22017;SDS011;11173;51.050;7.108;2022-08-19T22:12:29;0.38;;;0.38;;
22017;SDS011;11173;51.050;7.108;2022-08-19T22:17:32;0.20;;;0.20;;
22017;SDS011;11173;51.050;7.108;2022-08-19T22:22:32;0.22;;;0.22;;
22017;SDS011;11173;51.050;7.108;2022-08-19T22:27:33;0.40;;;0.40;;
22017;SDS011;11173;51.050;7.108;2022-08-19T22:32:34;0.20;;;0.20;;
22017;SDS011;11173;51.050;7.108;2022-08-19T22:37:35;0.55;;;0.47;;
22017;SDS011;11173;51.050;7.108;2022-08-19T22:42:36;0.32;;;0.32;;
22017;SDS011;11173;51.050;7.108;2022-08-19T22:47:37;1.50;;;0.57;;
22017;SDS011;11173;51.050;7.108;2022-08-19T22:52:37;0.40;;;0.35;;
22017;SDS011;11173;51.050;7.108;2022-08-19T22:57:41;0.40;;;0.40;;
22017;SDS011;11173;51.050;7.108;2022-08-19T23:02:42;0.98;;;0.57;;
22017;SDS011;11173;51.050;7.108;2022-08-19T23:07:42;0.40;;;0.40;;
22017;SDS011;11173;51.050;7.108;2022-08-19T23:12:45;0.93;;;0.43;;
22017;SDS011;11173;51.050;7.108;2022-08-19T23:17:47;0.50;;;0.47;;
22017;SDS011;11173;51.050;7.108;2022-08-19T23:22:47;0.63;;;0.50;;
22017;SDS011;11173;51.050;7.108;2022-08-19T23:27:49;0.77;;;0.63;;
22017;SDS011;11173;51.050;7.108;2022-08-19T23:33:14;0.57;;;0.57;;
22017;SDS011;11173;51.050;7.108;2022-08-19T23:38:23;0.60;;;0.60;;
22017;SDS011;11173;51.050;7.108;2022-08-19T23:43:25;0.47;;;0.47;;
22017;SDS011;11173;51.050;7.108;2022-08-19T23:48:28;1.27;;;0.80;;
22017;SDS011;11173;51.050;7.108;2022-08-19T23:53:31;0.77;;;0.70;;
22017;SDS011;11173;51.050;7.108;2022-08-19T23:58:33;0.68;;;0.68;;
